Time;durP1;ratioP1;P1;durP2;ratioP2;P2;SDS_P1;SDS_P2;PMS_P1;PMS_P2;Temp;Humidity;BMP_temperature;BMP_pressure;BME280_temperature;BME280_humidity;BME280_pressure;Samples;Min_cycle;Max_cycle;Signal;HPM_P1;HPM_P2
2021/11/03 00:00:01;;;;;;;1999.90;999.90;;;;;;;9.78;100.00;98627.47;5092428;28;20491;-34
2021/11/03 00:02:27;;;;;;;1999.90;999.90;;;;;;;9.78;100.00;98624.81;5092696;28;20024;-34
2021/11/03 00:04:52;;;;;;;1999.90;999.90;;;;;;;9.79;100.00;98629.06;5092607;28;20101;-33
2021/11/03 00:07:18;;;;;;;1999.90;999.90;;;;;;;9.86;100.00;98628.00;5092449;28;20472;-33
2021/11/03 00:09:44;;;;;;;1999.90;999.90;;;;;;;9.87;100.00;98627.75;5092255;28;20036;-34
2021/11/03 00:12:12;;;;;;;1999.90;999.90;;;;;;;9.88;100.00;98631.19;5092503;28;20162;-34
2021/11/03 00:14:38;;;;;;;1999.90;999.90;;;;;;;9.87;100.00;98638.38;5092143;28;20102;-33
2021/11/03 00:17:04;;;;;;;1999.90;999.90;;;;;;;9.86;100.00;98639.44;5092335;28;20035;-33
2021/11/03 00:19:30;;;;;;;1999.90;999.90;;;;;;;9.87;100.00;98643.72;5090894;28;20046;-33
2021/11/03 00:21:56;;;;;;;1999.90;999.90;;;;;;;9.85;100.00;98653.00;5092053;28;20500;-34
2021/11/03 00:24:21;;;;;;;1999.90;999.90;;;;;;;9.83;100.00;98655.16;5092303;28;20024;-33
2021/11/03 00:26:47;;;;;;;1999.90;999.90;;;;;;;9.80;100.00;98653.81;5091582;28;20486;-34
2021/11/03 00:29:12;;;;;;;1999.90;999.90;;;;;;;9.73;100.00;98656.72;5092328;28;20450;-34
2021/11/03 00:31:38;;;;;;;1999.90;999.90;;;;;;;9.80;100.00;98661.78;5092272;28;20403;-33
2021/11/03 00:34:04;;;;;;;1999.90;999.90;;;;;;;9.80;100.00;98667.09;5092000;28;20508;-34
2021/11/03 00:36:30;;;;;;;1999.90;999.90;;;;;;;9.71;100.00;98663.38;5092158;28;20449;-33
2021/11/03 00:38:55;;;;;;;1999.90;999.90;;;;;;;9.68;100.00;98663.91;5091867;28;20403;-33
2021/11/03 00:41:21;;;;;;;1999.90;999.90;;;;;;;9.61;100.00;98672.91;5092234;28;20111;-34
2021/11/03 00:43:47;;;;;;;1999.90;999.90;;;;;;;9.67;100.00;98667.63;5092668;28;20064;-33
2021/11/03 00:46:12;;;;;;;1999.90;999.90;;;;;;;9.64;100.00;98664.41;5091721;28;20036;-33
2021/11/03 00:48:38;;;;;;;1999.90;999.90;;;;;;;9.70;100.00;98662.56;5091828;28;20040;-33
2021/11/03 00:51:04;;;;;;;1999.90;999.90;;;;;;;9.72;100.00;98664.94;5092063;28;20035;-34
2021/11/03 00:53:30;;;;;;;1999.90;999.90;;;;;;;9.66;100.00;98664.16;5092110;28;20455;-34
2021/11/03 00:55:56;;;;;;;1999.90;999.90;;;;;;;9.71;100.00;98668.69;5091976;28;20403;-34
2021/11/03 00:58:21;;;;;;;1999.90;999.90;;;;;;;9.64;100.00;98658.28;5092029;28;20490;-33
2021/11/03 01:00:47;;;;;;;1999.90;999.90;;;;;;;9.66;100.00;98674.00;5092041;28;20024;-33
2021/11/03 01:03:13;;;;;;;1999.90;999.90;;;;;;;9.64;100.00;98672.38;5092023;28;20059;-34
2021/11/03 01:05:39;;;;;;;1999.90;999.90;;;;;;;9.67;100.00;98670.28;5091663;28;20398;-33
2021/11/03 01:08:07;;;;;;;1999.90;999.90;;;;;;;9.70;100.00;98680.38;5091828;28;20069;-33
2021/11/03 01:10:33;;;;;;;1999.90;999.90;;;;;;;9.67;100.00;98678.25;5094765;28;20031;-33
2021/11/03 01:13:00;;;;;;;1999.90;999.90;;;;;;;9.69;100.00;98687.59;5095874;28;20035;-33
2021/11/03 01:15:26;;;;;;;;;;;;;;;9.71;100.00;98682.00;5096255;28;20027;-34
2021/11/03 01:17:54;;;;;;;1999.90;999.90;;;;;;;9.66;100.00;98676.66;5095689;28;19977;-33
2021/11/03 01:20:22;;;;;;;1999.90;999.90;;;;;;;9.70;100.00;98680.38;5095702;28;20032;-34
2021/11/03 01:22:47;;;;;;;1999.90;999.90;;;;;;;9.67;100.00;98670.28;5096178;28;20121;-33
2021/11/03 01:25:15;;;;;;;1999.90;999.90;;;;;;;9.72;100.00;98679.06;5095307;28;20028;-33
2021/11/03 01:27:42;;;;;;;1999.90;999.90;;;;;;;9.70;100.00;98683.84;5094896;28;20055;-34
2021/11/03 01:30:11;;;;;;;1999.90;999.90;;;;;;;9.75;100.00;98693.72;5095800;28;20499;-34
2021/11/03 01:32:37;;;;;;;1999.90;999.90;;;;;;;9.85;100.00;98701.72;5095171;28;20028;-33
2021/11/03 01:35:04;;;;;;;;;;;;;;;9.91;100.00;98711.31;5095567;28;20146;-33
2021/11/03 01:37:30;;;;;;;1999.90;999.90;;;;;;;9.95;100.00;98711.56;5095045;28;19919;-33
2021/11/03 01:39:56;;;;;;;1999.90;999.90;;;;;;;10.05;100.00;98716.91;5095046;28;20028;-33
2021/11/03 01:42:21;;;;;;;1999.90;999.90;;;;;;;10.15;100.00;98726.78;5095264;28;20043;-33
2021/11/03 01:44:47;;;;;;;1999.90;999.90;;;;;;;10.23;100.00;98715.59;5094972;28;20024;-34
2021/11/03 01:47:34;;;;;;;1999.90;999.90;;;;;;;10.27;100.00;98721.19;5095066;28;20422;-33
2021/11/03 01:50:03;;;;;;;1999.90;999.90;;;;;;;10.32;100.00;98721.19;5095163;28;20154;-34
2021/11/03 01:52:29;;;;;;;1999.90;999.90;;;;;;;10.24;100.00;98727.84;5094763;28;20033;-34
2021/11/03 01:54:57;;;;;;;1999.90;999.90;;;;;;;10.26;100.00;98731.06;5094738;28;20027;-34
2021/11/03 01:57:35;;;;;;;1999.90;999.90;;;;;;;10.24;100.00;98732.38;5094507;28;20058;-33
2021/11/03 02:00:16;;;;;;;1999.90;999.90;;;;;;;10.21;100.00;98738.25;5094646;28;20488;-34
2021/11/03 02:02:43;;;;;;;1999.90;999.90;;;;;;;10.11;100.00;98731.81;5094914;28;20024;-34
2021/11/03 02:05:11;;;;;;;1999.90;999.90;;;;;;;10.15;100.00;98737.44;5094553;28;20058;-33
2021/11/03 02:07:38;;;;;;;1999.90;999.90;;;;;;;10.14;100.00;98743.81;5094866;28;20028;-34
2021/11/03 02:10:05;;;;;;;1999.90;999.90;;;;;;;10.13;100.00;98735.03;5094734;28;20103;-34
2021/11/03 02:12:31;;;;;;;;;;;;;;;10.14;100.00;98739.31;5094854;28;20142;-34
2021/11/03 02:14:57;;;;;;;1999.90;999.90;;;;;;;10.07;100.00;98740.59;5094303;28;20307;-34
2021/11/03 02:17:24;;;;;;;;;;;;;;;10.06;100.00;98747.00;5094759;28;20507;-34
2021/11/03 02:19:52;;;;;;;1999.90;999.90;;;;;;;10.03;100.00;98750.97;5093890;28;19919;-34
2021/11/03 02:22:46;;;;;;;1999.90;999.90;;;;;;;10.04;100.00;98754.44;5094198;28;20032;-33
2021/11/03 02:25:15;;;;;;;1999.90;999.90;;;;;;;10.01;100.00;98755.75;5094153;28;20024;-33
2021/11/03 02:27:44;;;;;;;1999.90;999.90;;;;;;;9.94;100.00;98750.69;5093771;28;20094;-33
2021/11/03 02:30:14;;;;;;;1999.90;999.90;;;;;;;9.93;100.00;98750.97;5094057;28;20024;-33
2021/11/03 02:32:43;;;;;;;1999.90;999.90;;;;;;;9.89;100.00;98752.53;5093987;28;20056;-34
2021/11/03 02:35:11;;;;;;;1999.90;999.90;;;;;;;9.85;100.00;98754.94;5093937;28;20024;-34
2021/11/03 02:37:48;;;;;;;1999.90;999.90;;;;;;;9.84;100.00;98749.84;5094274;28;20111;-32
2021/11/03 02:40:13;;;;;;;;;;;;;;;9.78;100.00;98749.84;5094677;28;20027;-33
2021/11/03 02:42:44;;;;;;;1999.90;999.90;;;;;;;9.72;100.00;98761.53;5094141;28;20314;-33
2021/11/03 02:45:16;;;;;;;1999.90;999.90;;;;;;;9.73;100.00;98751.69;5093828;28;20027;-33
2021/11/03 02:47:42;;;;;;;1999.90;999.90;;;;;;;9.69;100.00;98747.94;5093575;28;20051;-34
2021/11/03 02:50:11;;;;;;;1999.90;999.90;;;;;;;9.68;100.00;98762.34;5093743;28;20032;-34
2021/11/03 02:52:37;;;;;;;1999.90;999.90;;;;;;;9.63;100.00;98765.75;5093680;28;20028;-34
2021/11/03 02:55:05;;;;;;;;;;;;;;;9.69;100.00;98772.72;5094012;28;20111;-33
2021/11/03 02:57:31;;;;;;;1999.90;999.90;;;;;;;9.70;100.00;98781.47;5093741;28;20318;-34
2021/11/03 02:59:57;;;;;;;1999.90;999.90;;;;;;;9.66;100.00;98783.88;5094328;28;20036;-34
2021/11/03 03:02:23;;;;;;;1999.90;999.90;;;;;;;9.64;100.00;98785.97;5093425;28;20039;-33
2021/11/03 03:04:52;;;;;;;1999.90;999.90;;;;;;;9.61;100.00;98794.47;5093726;28;20024;-34
2021/11/03 03:07:17;;;;;;;1999.90;999.90;;;;;;;9.62;100.00;98812.03;5093167;28;20032;-33
2021/11/03 03:09:44;;;;;;;1999.90;999.90;;;;;;;9.66;100.00;98817.63;5093931;28;20024;-34
2021/11/03 03:12:11;;;;;;;;;;;;;;;9.68;100.00;98821.66;5094023;28;20024;-34
2021/11/03 03:14:39;;;;;;;1999.90;999.90;;;;;;;9.67;100.00;98828.03;5093186;28;19919;-34
2021/11/03 03:17:07;;;;;;;1999.90;999.90;;;;;;;9.68;100.00;98832.28;5093395;28;20064;-33
2021/11/03 03:19:33;;;;;;;1999.90;999.90;;;;;;;9.66;100.00;98836.25;5093041;28;20047;-34
2021/11/03 03:21:59;;;;;;;1999.90;999.90;;;;;;;9.70;100.00;98846.13;5093022;28;20117;-33
2021/11/03 03:24:25;;;;;;;1999.90;999.90;;;;;;;9.73;100.00;98844.81;5093013;28;20392;-34
2021/11/03 03:26:51;;;;;;;1999.90;999.90;;;;;;;9.66;100.00;98844.25;5092647;28;20127;-34
2021/11/03 03:29:17;;;;;;;1999.90;999.90;;;;;;;9.60;100.00;98857.53;5092532;28;20036;-34
2021/11/03 03:31:45;;;;;;;1999.90;999.90;;;;;;;9.63;100.00;98854.34;5091863;28;20107;-33
2021/11/03 03:34:15;;;;;;;1999.90;999.90;;;;;;;9.62;100.00;98860.72;5092852;28;20039;-33
2021/11/03 03:36:41;;;;;;;1999.90;999.90;;;;;;;9.57;100.00;98865.19;5092818;28;20047;-34
2021/11/03 03:39:08;;;;;;;;;;;;;;;9.48;100.00;98859.56;5093092;28;20082;-33
2021/11/03 03:41:35;;;;;;;1999.90;999.90;;;;;;;9.43;100.00;98864.88;5093546;28;19912;-33
2021/11/03 03:44:01;;;;;;;1999.90;999.90;;;;;;;9.41;100.00;98870.44;5092663;28;20495;-34
2021/11/03 03:46:27;;;;;;;1999.90;999.90;;;;;;;9.44;100.00;98861.13;5092509;28;20588;-33
2021/11/03 03:48:53;;;;;;;1999.90;999.90;;;;;;;9.41;100.00;98864.31;5092503;28;20110;-33
2021/11/03 03:51:20;;;;;;;1999.90;999.90;;;;;;;9.37;100.00;98874.66;5092841;28;20024;-33
2021/11/03 03:53:46;;;;;;;1999.90;999.90;;;;;;;9.39;100.00;98885.84;5092480;28;20028;-33
2021/11/03 03:56:13;;;;;;;1999.90;999.90;;;;;;;9.39;100.00;98875.19;5092665;28;20024;-33
2021/11/03 03:58:40;;;;;;;1999.90;999.90;;;;;;;9.33;100.00;98884.22;5092634;28;20032;-34
2021/11/03 04:01:06;;;;;;;1999.90;999.90;;;;;;;9.31;100.00;98886.34;5092453;28;20031;-33
2021/11/03 04:03:32;;;;;;;1999.90;999.90;;;;;;;9.38;100.00;98894.91;5092299;28;20016;-34
2021/11/03 04:05:59;;;;;;;1999.90;999.90;;;;;;;9.40;100.00;98889.31;5092309;28;20059;-33
2021/11/03 04:08:25;;;;;;;1999.90;999.90;;;;;;;9.45;100.00;98892.00;5092139;28;20039;-33
2021/11/03 04:10:51;;;;;;;1999.90;999.90;;;;;;;9.48;100.00;98888.81;5092528;28;20539;-33
2021/11/03 04:13:20;;;;;;;1999.90;999.90;;;;;;;9.47;100.00;98884.59;5092255;28;20120;-33
2021/11/03 04:15:46;;;;;;;1999.90;999.90;;;;;;;9.50;100.00;98878.75;5092468;28;20035;-33
2021/11/03 04:18:12;;;;;;;1999.90;999.90;;;;;;;9.49;100.00;98898.41;5092059;28;20026;-33
2021/11/03 04:20:37;;;;;;;1999.90;999.90;;;;;;;9.51;100.00;98885.66;5092403;28;20103;-34
2021/11/03 04:23:03;;;;;;;1999.90;999.90;;;;;;;9.54;100.00;98890.44;5092116;28;20019;-34
2021/11/03 04:25:29;;;;;;;1999.90;999.90;;;;;;;9.57;100.00;98881.97;5092115;28;20081;-34
2021/11/03 04:27:58;;;;;;;;;;;;;;;9.63;100.00;98885.44;5092149;28;20064;-33
2021/11/03 04:30:25;;;;;;;1999.90;999.90;;;;;;;9.64;100.00;98895.03;5091976;28;20480;-34
2021/11/03 04:32:51;;;;;;;;;;;;;;;9.67;100.00;98891.06;5092723;28;20072;-34
2021/11/03 04:35:17;;;;;;;1999.90;999.90;;;;;;;9.59;100.00;98895.81;5091954;28;20395;-34
2021/11/03 04:37:43;;;;;;;1999.90;999.90;;;;;;;9.65;100.00;98886.00;5092178;28;20028;-33
2021/11/03 04:40:12;;;;;;;1999.90;999.90;;;;;;;9.70;100.00;98902.00;5091554;28;20032;-34
2021/11/03 04:42:38;;;;;;;1999.90;999.90;;;;;;;9.66;100.00;98898.25;5091758;28;20078;-33
2021/11/03 04:45:06;;;;;;;1999.90;999.90;;;;;;;9.64;100.00;98903.81;5096444;28;20020;-34
2021/11/03 04:47:31;;;;;;;1999.90;999.90;;;;;;;9.71;100.00;98905.47;5095915;28;20077;-33
2021/11/03 04:49:58;;;;;;;1999.90;999.90;;;;;;;9.70;100.00;98911.84;5095975;28;20107;-33
2021/11/03 04:52:25;;;;;;;1999.90;999.90;;;;;;;9.75;100.00;98918.00;5095953;28;20024;-33
2021/11/03 04:54:52;;;;;;;1999.90;999.90;;;;;;;9.70;100.00;98920.59;5095882;28;20031;-34
2021/11/03 04:57:18;;;;;;;1999.90;999.90;;;;;;;9.64;100.00;98914.44;5096140;28;20024;-34
2021/11/03 04:59:45;;;;;;;1999.90;999.90;;;;;;;9.66;100.00;98924.03;5095743;28;20024;-34
2021/11/03 05:02:15;;;;;;;1999.90;999.90;;;;;;;9.73;100.00;98930.75;5095715;28;20028;-33
2021/11/03 05:04:41;;;;;;;1999.90;999.90;;;;;;;9.73;100.00;98925.41;5096049;28;20031;-34
2021/11/03 05:07:08;;;;;;;1999.90;999.90;;;;;;;9.83;100.00;98927.34;5095663;28;20031;-34
2021/11/03 05:09:33;;;;;;;1999.90;999.90;;;;;;;9.78;100.00;98924.66;5095521;28;20032;-34
2021/11/03 05:11:59;;;;;;;1999.90;999.90;;;;;;;9.69;100.00;98923.53;5095551;28;20107;-34
2021/11/03 05:14:26;;;;;;;1999.90;999.90;;;;;;;9.80;100.00;98928.66;5095511;28;20028;-34
2021/11/03 05:16:52;;;;;;;1999.90;999.90;;;;;;;9.85;100.00;98922.59;5095426;28;20032;-33
2021/11/03 05:19:30;;;;;;;1999.90;999.90;;;;;;;9.91;100.00;98924.22;5095365;28;20024;-33
2021/11/03 05:21:56;;;;;;;1999.90;999.90;;;;;;;9.95;100.00;98925.31;5095362;28;20036;-34
2021/11/03 05:24:22;;;;;;;1999.90;999.90;;;;;;;10.03;100.00;98934.66;5095669;28;20031;-34
2021/11/03 05:26:48;;;;;;;1999.90;999.90;;;;;;;10.05;100.00;98937.06;5094999;28;20243;-33
2021/11/03 05:29:15;;;;;;;;;;;;;;;10.20;100.00;98950.41;5095617;28;20035;-34
2021/11/03 05:31:40;;;;;;;1999.90;999.90;;;;;;;10.47;100.00;98947.63;5095189;28;19912;-33
2021/11/03 05:34:06;;;;;;;1999.90;999.90;;;;;;;10.57;100.00;98949.53;5095180;28;20024;-33
2021/11/03 05:36:33;;;;;;;1999.90;999.90;;;;;;;10.65;100.00;98953.56;5095159;28;20043;-34
2021/11/03 05:39:05;;;;;;;1999.90;999.90;;;;;;;10.70;100.00;98961.56;5094938;28;20032;-33
2021/11/03 05:41:30;;;;;;;1999.90;999.90;;;;;;;10.84;100.00;98962.66;5095365;28;20052;-33
2021/11/03 05:43:58;;;;;;;1999.90;999.90;;;;;;;10.89;100.00;98972.53;5094962;28;20573;-33
2021/11/03 05:46:30;;;;;;;1999.90;999.90;;;;;;;10.98;100.00;98980.81;5095243;28;20055;-34
2021/11/03 05:48:58;;;;;;;1999.90;999.90;;;;;;;11.00;100.00;98986.69;5094814;28;20032;-34
2021/11/03 05:51:24;;;;;;;1999.90;999.90;;;;;;;11.17;100.00;98992.59;5093936;28;20576;-34
2021/11/03 05:53:49;;;;;;;1999.90;999.90;;;;;;;11.50;100.00;98995.81;5093595;28;20111;-33
2021/11/03 05:56:15;;;;;;;1999.90;999.90;;;;;;;11.58;100.00;98993.66;5093923;28;20416;-33
2021/11/03 05:58:41;;;;;;;1999.90;999.90;;;;;;;11.65;100.00;99008.34;5094933;28;20120;-33
2021/11/03 06:01:08;;;;;;;1999.90;999.90;;;;;;;11.64;100.00;99008.59;5095502;28;20476;-33
2021/11/03 06:03:35;;;;;;;1999.90;999.90;;;;;;;11.70;100.00;99015.53;5094860;28;20031;-33
2021/11/03 06:06:01;;;;;;;1999.90;999.90;;;;;;;11.78;100.00;99023.00;5094561;28;20561;-33
2021/11/03 06:08:27;;;;;;;1999.90;999.90;;;;;;;11.84;100.00;99024.59;5094671;28;20515;-33
2021/11/03 06:10:53;;;;;;;1999.90;999.90;;;;;;;11.87;100.00;99028.63;5094794;28;20016;-33
2021/11/03 06:13:20;;;;;;;1999.90;999.90;;;;;;;11.77;100.00;99034.75;5094505;28;20103;-33
2021/11/03 06:15:46;;;;;;;1999.90;999.90;;;;;;;11.82;100.00;99044.63;5094272;28;20024;-34
2021/11/03 06:18:12;;;;;;;1999.90;999.90;;;;;;;12.01;100.00;99044.91;5094328;28;20047;-33
2021/11/03 06:20:38;;;;;;;1999.90;999.90;;;;;;;12.11;100.00;99049.44;5094287;28;20506;-33
2021/11/03 06:23:05;;;;;;;1999.90;999.90;;;;;;;11.97;100.00;99044.66;5094541;28;20133;-33
2021/11/03 06:25:32;;;;;;;1999.90;999.90;;;;;;;12.00;100.00;99049.47;5094238;28;20111;-33
2021/11/03 06:27:58;;;;;;;1999.90;999.90;;;;;;;12.07;100.00;99049.97;5093820;28;20144;-33
2021/11/03 06:30:26;;;;;;;;;;;;;;;12.08;100.00;99051.59;5094626;28;20024;-33
2021/11/03 06:32:51;;;;;;;1999.90;999.90;;;;;;;12.25;100.00;99053.94;5094073;28;20371;-33
2021/11/03 06:35:17;;;;;;;1999.90;999.90;;;;;;;12.32;100.00;99061.69;5094015;28;20046;-33
2021/11/03 06:37:43;;;;;;;1999.90;999.90;;;;;;;12.39;100.00;99064.88;5093941;28;20039;-33
2021/11/03 06:40:12;;;;;;;1999.90;999.90;;;;;;;12.57;100.00;99076.06;5093845;28;20024;-34
2021/11/03 06:42:38;;;;;;;1999.90;999.90;;;;;;;12.72;100.00;99072.53;5094102;28;20043;-33
2021/11/03 06:45:07;;;;;;;1999.90;999.90;;;;;;;12.77;100.00;99078.66;5094143;28;20417;-33
2021/11/03 06:47:33;;;;;;;1999.90;999.90;;;;;;;12.91;100.00;99088.78;5093603;28;20028;-34
2021/11/03 06:49:59;;;;;;;1999.90;999.90;;;;;;;13.13;100.00;99101.78;5093655;28;20030;-34
2021/11/03 06:52:25;;;;;;;1999.90;999.90;;;;;;;13.20;100.00;99098.78;5093674;28;20518;-33
2021/11/03 06:54:51;;;;;;;1999.90;999.90;;;;;;;13.24;100.00;99105.19;5093595;28;20032;-33
2021/11/03 06:57:17;;;;;;;1999.90;999.90;;;;;;;13.23;100.00;99099.06;5093529;28;20020;-34
2021/11/03 06:59:46;;;;;;;1999.90;999.90;;;;;;;13.29;100.00;99116.69;5093717;28;20027;-34
2021/11/03 07:02:15;;;;;;;1999.90;999.90;;;;;;;13.63;100.00;99107.16;5092407;28;20040;-34
2021/11/03 07:04:41;;;;;;;1999.90;999.90;;;;;;;13.83;100.00;99112.34;5093407;28;20091;-33
2021/11/03 07:07:06;;;;;;;1999.90;999.90;;;;;;;13.91;100.00;99112.84;5092218;28;20107;-34
2021/11/03 07:09:32;;;;;;;1999.90;999.90;;;;;;;14.05;100.00;99121.00;5093167;28;20055;-33
2021/11/03 07:11:58;;;;;;;1999.90;999.90;;;;;;;14.18;100.00;99128.41;5093602;28;20066;-33
2021/11/03 07:14:24;;;;;;;1999.90;999.90;;;;;;;14.58;100.00;99129.13;5093225;28;20502;-34
2021/11/03 07:16:49;;;;;;;1999.90;999.90;;;;;;;14.59;100.00;99138.72;5093190;28;20099;-34
2021/11/03 07:19:15;;;;;;;1999.90;999.90;;;;;;;14.45;100.00;99132.47;5093174;28;20028;-34
2021/11/03 07:21:41;;;;;;;1999.90;999.90;;;;;;;14.69;100.00;99141.34;5093109;28;20039;-34
2021/11/03 07:24:08;;;;;;;1999.90;999.90;;;;;;;14.76;100.00;99148.28;5093368;28;20032;-33
2021/11/03 07:26:34;;;;;;;1999.90;999.90;;;;;;;14.96;100.00;99149.91;5092700;28;20044;-33
2021/11/03 07:28:59;;;;;;;1999.90;999.90;;;;;;;14.81;100.00;99156.25;5092913;28;20028;-34
2021/11/03 07:31:25;;;;;;;1999.90;999.90;;;;;;;14.87;100.00;99153.25;5092917;28;20036;-33
2021/11/03 07:33:51;;;;;;;1999.90;999.90;;;;;;;14.88;100.00;99164.75;5092902;28;20036;-34
2021/11/03 07:36:22;;;;;;;1999.90;999.90;;;;;;;14.93;100.00;99166.56;5092838;28;20024;-33
2021/11/03 07:38:48;;;;;;;1999.90;999.90;;;;;;;14.98;100.00;99169.22;5092786;28;20059;-34
2021/11/03 07:41:15;;;;;;;1999.90;999.90;;;;;;;15.16;100.00;99171.13;5093278;28;20403;-34
2021/11/03 07:43:42;;;;;;;;;;;;;;;15.05;100.00;99165.09;5093112;28;20028;-34
2021/11/03 07:46:08;;;;;;;1999.90;999.90;;;;;;;15.00;100.00;99161.66;5092681;28;20002;-33
2021/11/03 07:48:33;;;;;;;1999.90;999.90;;;;;;;15.03;100.00;99169.97;5091295;28;20174;-34
2021/11/03 07:51:03;;;;;;;1999.90;999.90;;;;;;;15.05;100.00;99173.16;5092505;28;20035;-34
2021/11/03 07:53:29;;;;;;;1999.90;999.90;;;;;;;15.00;100.00;99167.81;5092822;28;20034;-34
2021/11/03 07:55:58;;;;;;;1999.90;999.90;;;;;;;15.05;100.00;99169.69;5092477;28;20020;-33
2021/11/03 07:58:28;;;;;;;1999.90;999.90;;;;;;;15.17;100.00;99177.31;5092424;28;20024;-33
2021/11/03 08:00:55;;;;;;;1999.90;999.90;;;;;;;15.15;100.00;99179.47;5092357;28;20491;-34
2021/11/03 08:03:22;;;;;;;1999.90;999.90;;;;;;;15.19;100.00;99188.56;5092381;28;20496;-33
2021/11/03 08:05:52;;;;;;;1999.90;999.90;;;;;;;15.34;100.00;99185.69;5092224;28;20036;-33
2021/11/03 08:08:21;;;;;;;1999.90;999.90;;;;;;;15.17;100.00;99188.06;5092524;28;20032;-33
2021/11/03 08:10:48;;;;;;;1999.90;999.90;;;;;;;15.25;100.00;99189.28;5092195;28;20028;-34
2021/11/03 08:13:18;;;;;;;1999.90;999.90;;;;;;;15.36;100.00;99196.94;5092543;28;20399;-33
2021/11/03 08:15:47;;;;;;;1999.90;999.90;;;;;;;15.46;100.00;99201.38;5092163;28;20020;-34
2021/11/03 08:18:14;;;;;;;1999.90;999.90;;;;;;;15.50;100.00;99194.31;5092172;28;20103;-33
2021/11/03 08:20:42;;;;;;;1999.90;999.90;;;;;;;15.50;100.00;99196.22;5092075;28;20106;-33
2021/11/03 08:23:09;;;;;;;1999.90;999.90;;;;;;;15.54;100.00;99199.94;5092962;28;20058;-33
2021/11/03 08:25:36;;;;;;;1999.90;999.90;;;;;;;15.49;100.00;99197.31;5092119;28;20051;-33
2021/11/03 08:28:02;;;;;;;1999.90;999.90;;;;;;;15.61;100.00;99200.38;5091725;28;20040;-34
2021/11/03 08:30:30;;;;;;;1999.90;999.90;;;;;;;15.68;100.00;99202.69;5091912;28;20072;-34
2021/11/03 08:33:05;;;;;;;1999.90;999.90;;;;;;;15.89;100.00;99197.88;5091975;28;20056;-34
2021/11/03 08:35:31;;;;;;;1999.90;999.90;;;;;;;15.98;100.00;99195.34;5092356;28;20411;-33
2021/11/03 08:38:03;;;;;;;1999.90;999.90;;;;;;;16.08;100.00;99203.25;5091993;28;20028;-34
2021/11/03 08:40:32;;;;;;;1999.90;999.90;;;;;;;16.08;100.00;99201.34;5091925;28;20032;-34
2021/11/03 08:42:59;;;;;;;1999.90;999.90;;;;;;;16.15;100.00;99192.91;5091863;28;20399;-34
2021/11/03 08:45:27;;;;;;;1999.90;999.90;;;;;;;16.17;100.00;99193.41;5091785;28;20028;-33
2021/11/03 08:47:52;;;;;;;1999.90;999.90;;;;;;;16.31;100.00;99198.03;5091787;28;20081;-33
2021/11/03 08:50:23;;;;;;;1999.90;999.90;;;;;;;16.34;100.00;99192.88;5091735;28;20024;-33
2021/11/03 08:52:49;;;;;;;1999.90;999.90;;;;;;;16.40;100.00;99204.31;5092424;28;20118;-33
2021/11/03 08:55:15;;;;;;;1999.90;999.90;;;;;;;16.44;100.00;99192.72;5092093;28;20099;-33
2021/11/03 08:57:41;;;;;;;1999.90;999.90;;;;;;;16.40;100.00;99204.31;5091875;28;20492;-33
2021/11/03 09:00:10;;;;;;;1999.90;999.90;;;;;;;16.42;100.00;99200.25;5091719;28;20024;-34
2021/11/03 09:02:36;;;;;;;1999.90;999.90;;;;;;;16.32;98.28;99213.09;5091609;28;20073;-33
2021/11/03 09:05:03;;;;;;;1999.90;999.90;;;;;;;16.40;100.00;99207.03;5091712;28;20024;-34
2021/11/03 09:07:32;;;;;;;1999.90;999.90;;;;;;;16.47;100.00;99203.97;5091618;28;20035;-34
2021/11/03 09:09:58;;;;;;;1999.90;999.90;;;;;;;16.72;100.00;99205.41;5091583;28;20024;-34
2021/11/03 09:12:24;;;;;;;1999.90;999.90;;;;;;;16.78;97.60;99214.97;5091655;28;20027;-34
2021/11/03 09:14:49;;;;;;;1999.90;999.90;;;;;;;16.85;96.89;99210.00;5091631;28;20028;-33
2021/11/03 09:17:15;;;;;;;1999.90;999.90;;;;;;;16.90;100.00;99212.66;5092663;28;20092;-34
2021/11/03 09:19:42;;;;;;;1999.90;999.90;;;;;;;17.00;94.20;99221.63;5091586;28;20036;-34
2021/11/03 09:22:07;;;;;;;;;;;;;;;17.22;96.98;99219.06;5092238;28;20162;-34
2021/11/03 09:24:38;;;;;;;1999.90;999.90;;;;;;;17.41;98.05;99221.63;5092346;28;20397;-34
2021/11/03 09:27:12;;;;;;;1999.90;999.90;;;;;;;17.66;93.43;99220.28;5091371;28;20051;-34
2021/11/03 09:29:38;;;;;;;1999.90;999.90;;;;;;;17.86;91.93;99212.84;5091592;28;20036;-34
2021/11/03 09:32:04;;;;;;;;;;;;;;;17.88;85.64;99234.09;5096489;28;20024;-34
2021/11/03 09:34:31;;;;;;;1999.90;999.90;;;;;;;17.76;86.02;99234.63;5095503;28;19973;-34
2021/11/03 09:37:00;;;;;;;1999.90;999.90;;;;;;;17.69;85.40;99228.88;5095144;28;20039;-33
2021/11/03 09:39:26;;;;;;;1999.90;999.90;;;;;;;17.75;86.14;99230.34;5095107;28;20031;-34
2021/11/03 09:41:53;;;;;;;1999.90;999.90;;;;;;;17.91;88.65;99222.75;5094919;28;20020;-34
2021/11/03 09:44:24;;;;;;;1999.90;999.90;;;;;;;18.10;86.28;99225.28;5093759;28;20550;-34
2021/11/03 09:47:17;;;;;;;1999.90;999.90;;;;;;;18.14;87.12;99220.88;5094846;28;20034;-34
2021/11/03 09:49:49;;;;;;;1999.90;999.90;;;;;;;18.15;84.67;99217.88;5095213;28;20092;-34
2021/11/03 09:52:26;;;;;;;1999.90;999.90;;;;;;;18.29;87.12;99211.63;5094718;28;20523;-34
2021/11/03 09:54:55;;;;;;;1999.90;999.90;;;;;;;18.39;84.93;99214.06;5094696;28;20051;-34
2021/11/03 09:57:44;;;;;;;1999.90;999.90;;;;;;;18.53;82.59;99214.00;5094467;28;20020;-34
2021/11/03 10:00:43;;;;;;;1999.90;999.90;;;;;;;18.64;84.50;99218.03;5094603;28;20039;-34
2021/11/03 10:03:45;;;;;;;1999.90;999.90;;;;;;;18.78;83.90;99217.13;5094196;28;20123;-34
2021/11/03 10:06:34;;;;;;;1999.90;999.90;;;;;;;18.93;84.93;99213.28;5094313;28;20033;-34
2021/11/03 10:09:00;;;;;;;1999.90;999.90;;;;;;;19.00;82.83;99217.13;5094780;28;20403;-34
2021/11/03 10:11:38;;;;;;;1999.90;999.90;;;;;;;19.09;78.57;99214.47;5094326;28;20020;-33
2021/11/03 10:14:05;;;;;;;1999.90;999.90;;;;;;;19.31;83.31;99216.28;5094461;28;20097;-34
2021/11/03 10:16:38;;;;;;;1999.90;999.90;;;;;;;19.43;84.83;99221.06;5094388;28;20039;-34
2021/11/03 10:19:26;;;;;;;1999.90;999.90;;;;;;;19.52;80.45;99224.56;5094390;28;20511;-34
2021/11/03 10:21:57;;;;;;;1999.90;999.90;;;;;;;19.46;72.85;99223.13;5094284;28;20020;-34
2021/11/03 10:24:33;;;;;;;1999.90;999.90;;;;;;;19.41;73.63;99229.50;5094231;28;20115;-33
2021/11/03 10:27:13;;;;;;;1999.90;999.90;;;;;;;19.30;76.45;99224.69;5094533;28;20044;-34
2021/11/03 10:29:49;;;;;;;1999.90;999.90;;;;;;;19.28;75.88;99225.00;5094151;28;20035;-34
2021/11/03 10:32:20;;;;;;;1999.90;999.90;;;;;;;19.46;78.55;99230.47;5093987;28;20032;-34
2021/11/03 10:34:59;;;;;;;1999.90;999.90;;;;;;;19.51;75.48;99228.41;5094069;28;20107;-34
2021/11/03 10:37:36;;;;;;;1999.90;999.90;;;;;;;19.63;78.22;99229.69;5094031;28;20024;-34
2021/11/03 10:40:15;;;;;;;1999.90;999.90;;;;;;;19.66;79.82;99224.47;5093835;28;20123;-34
2021/11/03 10:42:41;;;;;;;1999.90;999.90;;;;;;;19.65;80.24;99227.47;5093665;28;20093;-34
2021/11/03 10:45:22;;;;;;;1999.90;999.90;;;;;;;19.65;78.99;99220.16;5094660;28;20028;-34
2021/11/03 10:48:24;;;;;;;1999.90;999.90;;;;;;;19.70;78.24;99221.91;5093652;28;20466;-34
2021/11/03 10:50:56;;;;;;;1999.90;999.90;;;;;;;19.49;76.95;99225.22;5090382;28;20043;-34
2021/11/03 10:53:23;;;;;;;1999.90;999.90;;;;;;;19.45;78.63;99235.06;5093626;28;20153;-34
2021/11/03 10:56:13;;;;;;;1999.90;999.90;;;;;;;19.29;76.55;99223.88;5093582;28;20031;-34
2021/11/03 10:59:05;;;;;;;1999.90;999.90;;;;;;;19.27;77.39;99228.81;5093781;28;20020;-34
2021/11/03 11:01:44;;;;;;;1999.90;999.90;;;;;;;19.17;75.61;99226.41;5093403;28;20036;-34